createdAt,value
2019-04-23T00:01:03.013Z,24.70
2019-04-23T00:03:18.831Z,24.70
2019-04-23T00:08:31.535Z,24.60
2019-04-23T00:10:53.986Z,24.60
2019-04-23T00:13:21.121Z,24.60
2019-04-23T00:15:54.816Z,24.60
2019-04-23T00:18:28.301Z,24.60
2019-04-23T00:20:47.706Z,24.60
2019-04-23T00:23:16.372Z,24.60
2019-04-23T00:26:03.906Z,24.60
2019-04-23T00:28:31.421Z,24.50
2019-04-23T00:30:59.411Z,24.50
2019-04-23T00:33:27.050Z,24.50
2019-04-23T00:35:53.365Z,24.50
2019-04-23T00:40:55.687Z,24.50
2019-04-23T00:48:24.166Z,24.40
2019-04-23T00:55:43.049Z,24.40
2019-04-23T00:58:19.841Z,24.30
2019-04-23T01:00:45.996Z,24.40
2019-04-23T01:08:12.950Z,24.40
2019-04-23T01:10:46.535Z,24.40
2019-04-23T01:13:09.337Z,24.40
2019-04-23T01:15:42.567Z,24.40
2019-04-23T01:18:14.383Z,24.30
2019-04-23T01:20:44.468Z,24.30
2019-04-23T01:22:51.005Z,24.30
2019-04-23T01:25:36.392Z,24.30
2019-04-23T01:28:25.259Z,24.30
2019-04-23T01:30:47.194Z,24.20
2019-04-23T01:33:29.204Z,24.20
2019-04-23T01:36:03.200Z,24.20
2019-04-23T01:38:21.918Z,24.20
2019-04-23T01:40:45.774Z,24.20
2019-04-23T01:43:17.939Z,24.20
2019-04-23T01:45:38.816Z,24.10
2019-04-23T01:48:13.123Z,24.10
2019-04-23T01:50:48.337Z,24.10
2019-04-23T01:53:24.701Z,24.10
2019-04-23T01:55:46.749Z,24.10
2019-04-23T01:58:31.809Z,24.10
2019-04-23T02:00:47.502Z,24.10
2019-04-23T02:03:15.469Z,24.10
2019-04-23T02:05:43.206Z,24.10
2019-04-23T02:10:44.459Z,24.00
2019-04-23T02:18:13.404Z,23.90
2019-04-23T02:20:45.821Z,23.80
2019-04-23T02:25:44.282Z,23.80
2019-04-23T02:28:09.142Z,23.80
2019-04-23T02:30:58.185Z,23.80
2019-04-23T02:33:30.107Z,23.70
2019-04-23T02:38:18.851Z,23.70
2019-04-23T02:40:58.918Z,23.80
2019-04-23T02:45:48.801Z,23.80
2019-04-23T02:48:19.792Z,23.70
2019-04-23T02:50:40.169Z,23.70
2019-04-23T02:53:14.413Z,23.70
2019-04-23T02:55:43.717Z,23.70
2019-04-23T02:58:11.148Z,23.60
2019-04-23T03:00:46.427Z,23.50
2019-04-23T03:03:06.131Z,23.50
2019-04-23T03:08:13.797Z,23.60
2019-04-23T03:10:43.073Z,23.60
2019-04-23T03:13:19.356Z,23.60
2019-04-23T03:15:53.707Z,23.50
2019-04-23T03:18:42.069Z,23.50
2019-04-23T03:23:52.266Z,23.50
2019-04-23T03:26:30.329Z,23.60
2019-04-23T03:33:04.081Z,23.60
2019-04-23T03:38:43.110Z,23.50
2019-04-23T03:41:15.403Z,23.50
2019-04-23T03:51:18.652Z,23.60
2019-04-23T03:53:52.256Z,23.60
2019-04-23T03:56:05.734Z,23.70
2019-04-23T04:04:01.701Z,23.70
2019-04-23T04:06:05.362Z,23.70
2019-04-23T04:11:08.533Z,23.80
2019-04-23T04:21:02.181Z,23.80
2019-04-23T04:23:22.510Z,23.90
2019-04-23T04:25:53.472Z,24.00
2019-04-23T04:30:53.203Z,24.10
2019-04-23T04:40:50.898Z,24.40
2019-04-23T04:43:31.652Z,24.60
2019-04-23T04:46:09.181Z,24.70
2019-04-23T04:48:15.960Z,24.90
2019-04-23T04:50:52.965Z,25.20
2019-04-23T04:53:38.355Z,25.60
2019-04-23T05:01:03.943Z,27.10
2019-04-23T05:10:51.603Z,28.30
2019-04-23T05:13:31.598Z,28.60
2019-04-23T05:25:40.078Z,29.50
2019-04-23T05:33:11.875Z,29.70
2019-04-23T05:36:01.994Z,29.80
2019-04-23T05:43:07.429Z,30.20
2019-04-23T05:45:34.398Z,30.20
2019-04-23T05:48:14.805Z,30.20
2019-04-23T05:50:44.436Z,30.20
2019-04-23T05:53:05.895Z,30.30
2019-04-23T05:55:34.022Z,30.30
2019-04-23T05:58:05.175Z,30.40
2019-04-23T06:00:40.162Z,30.60
2019-04-23T06:03:14.829Z,30.60
2019-04-23T06:05:41.530Z,30.50
2019-04-23T06:08:28.780Z,30.50
2019-04-23T06:10:36.282Z,30.40
2019-04-23T06:13:08.039Z,30.40
2019-04-23T06:15:35.099Z,30.40
2019-04-23T06:18:08.110Z,30.50
2019-04-23T06:20:34.976Z,30.70
2019-04-23T06:23:06.388Z,30.70
2019-04-23T06:28:01.577Z,30.70
2019-04-23T06:30:35.340Z,30.90
2019-04-23T06:33:00.492Z,30.90
2019-04-23T06:35:44.844Z,30.90
2019-04-23T06:40:22.297Z,30.90
2019-04-23T06:43:01.320Z,30.70
2019-04-23T06:45:30.776Z,30.50
2019-04-23T06:47:54.180Z,30.50
2019-04-23T06:50:21.362Z,30.40
2019-04-23T06:52:50.078Z,30.40
2019-04-23T06:55:20.823Z,30.30
2019-04-23T06:57:52.187Z,30.40
2019-04-23T07:00:25.817Z,30.40
2019-04-23T07:02:44.293Z,30.30
2019-04-23T07:05:17.526Z,30.00
2019-04-23T07:12:47.241Z,30.00
2019-04-23T07:15:24.874Z,30.00
2019-04-23T07:17:34.651Z,29.90
2019-04-23T07:20:07.067Z,29.90
2019-04-23T07:22:35.959Z,29.80
2019-04-23T07:25:07.983Z,30.10
2019-04-23T07:30:10.410Z,30.50
2019-04-23T07:32:31.007Z,30.70
2019-04-23T07:35:10.774Z,30.70
2019-04-23T07:37:40.291Z,30.70
2019-04-23T07:43:00.208Z,30.50
2019-04-23T07:45:33.024Z,30.70
2019-04-23T07:53:44.344Z,30.80
2019-04-23T07:58:21.295Z,31.40
2019-04-23T08:03:17.275Z,31.70
2019-04-23T08:08:07.297Z,31.60
2019-04-23T08:10:42.184Z,31.80
2019-04-23T08:13:10.322Z,31.90
2019-04-23T08:15:39.813Z,31.90
2019-04-23T08:18:06.988Z,31.90
2019-04-23T08:20:40.527Z,31.90
2019-04-23T08:23:12.539Z,31.90
2019-04-23T08:25:44.437Z,31.80
2019-04-23T08:28:13.372Z,31.80
2019-04-23T08:30:42.254Z,31.70
2019-04-23T08:33:23.422Z,31.70
2019-04-23T08:35:45.351Z,31.50
2019-04-23T08:38:26.665Z,31.70
2019-04-23T08:40:52.546Z,31.70
2019-04-23T08:43:31.457Z,31.60
2019-04-23T08:45:58.062Z,31.10
2019-04-23T08:51:06.892Z,30.80
2019-04-23T08:53:35.733Z,30.90
2019-04-23T08:56:12.312Z,31.00
2019-04-23T08:58:36.867Z,31.20
2019-04-23T09:10:55.943Z,31.20
2019-04-23T09:15:49.946Z,31.10
2019-04-23T09:20:43.219Z,30.90
2019-04-23T09:23:24.482Z,31.10
2019-04-23T09:28:23.985Z,30.90
2019-04-23T09:30:49.308Z,30.60
2019-04-23T09:33:27.911Z,30.40
2019-04-23T09:36:01.467Z,30.30
2019-04-23T09:38:34.526Z,30.10
2019-04-23T09:41:21.908Z,30.20
2019-04-23T09:43:48.349Z,30.00
2019-04-23T09:46:17.554Z,29.80
2019-04-23T09:48:54.701Z,29.60
2019-04-23T09:51:17.631Z,29.70
2019-04-23T09:53:41.118Z,29.70
2019-04-23T09:56:05.085Z,30.10
2019-04-23T09:58:39.513Z,30.50
2019-04-23T10:01:29.140Z,30.80
2019-04-23T10:03:40.593Z,30.10
2019-04-23T10:06:04.232Z,30.00
2019-04-23T10:08:35.587Z,30.10
2019-04-23T10:10:59.681Z,30.10
2019-04-23T10:13:27.915Z,30.30
2019-04-23T10:15:58.158Z,30.70
2019-04-23T10:18:26.767Z,30.80
2019-04-23T10:20:54.463Z,31.10
2019-04-23T10:23:23.099Z,31.40
2019-04-23T10:25:50.144Z,31.30
2019-04-23T10:28:29.563Z,31.40
2019-04-23T10:30:56.884Z,31.30
2019-04-23T10:33:25.461Z,31.50
2019-04-23T10:36:00.869Z,31.10
2019-04-23T10:38:25.985Z,30.90
2019-04-23T10:40:54.123Z,30.90
2019-04-23T10:43:22.691Z,31.00
2019-04-23T10:46:18.592Z,31.30
2019-04-23T10:49:00.620Z,31.40
2019-04-23T10:54:30.856Z,31.60
2019-04-23T10:56:56.313Z,31.90
2019-04-23T11:02:29.526Z,32.10
2019-04-23T11:07:20.534Z,31.90
2019-04-23T11:09:53.052Z,32.00
2019-04-23T11:12:32.941Z,32.00
2019-04-23T11:14:58.218Z,31.90
2019-04-23T11:17:25.911Z,31.80
2019-04-23T11:22:36.161Z,31.60
2019-04-23T11:24:50.092Z,31.30
2019-04-23T11:27:24.465Z,31.30
2019-04-23T11:29:51.885Z,31.10
2019-04-23T11:32:41.219Z,31.20
2019-04-23T11:35:06.667Z,31.40
2019-04-23T11:37:25.102Z,31.20
2019-04-23T11:39:46.090Z,31.10
2019-04-23T11:42:16.787Z,30.70
2019-04-23T11:44:40.164Z,30.70
2019-04-23T11:47:41.705Z,30.90
2019-04-23T11:52:21.122Z,31.30
2019-04-23T12:02:16.517Z,31.30
2019-04-23T12:07:25.968Z,31.40
2019-04-23T12:12:28.073Z,31.80
2019-04-23T12:14:54.366Z,31.50
2019-04-23T12:17:41.135Z,31.50
2019-04-23T12:22:44.603Z,31.80
2019-04-23T12:27:33.113Z,31.70
2019-04-23T12:30:13.191Z,31.50
2019-04-23T12:37:58.150Z,31.20
2019-04-23T12:50:41.821Z,32.10
2019-04-23T12:53:01.192Z,31.90
2019-04-23T12:55:22.351Z,31.90
2019-04-23T12:57:47.007Z,31.90
2019-04-23T13:02:46.748Z,31.60
2019-04-23T13:05:14.568Z,31.90
2019-04-23T13:07:43.571Z,31.90
2019-04-23T13:17:55.510Z,32.20
2019-04-23T13:20:27.939Z,32.40
2019-04-23T13:22:49.190Z,32.00
2019-04-23T13:25:20.228Z,31.80
2019-04-23T13:28:03.612Z,31.60
2019-04-23T13:30:27.641Z,31.70
2019-04-23T13:32:55.563Z,31.90
2019-04-23T13:35:36.880Z,32.10
2019-04-23T13:37:56.410Z,32.30
2019-04-23T13:40:17.575Z,32.30
2019-04-23T13:42:57.372Z,32.10
2019-04-23T13:45:33.274Z,31.90
2019-04-23T13:50:34.102Z,31.80
2019-04-23T13:55:09.199Z,31.50
2019-04-23T14:00:22.688Z,31.90
2019-04-23T14:05:17.654Z,32.10
2019-04-23T14:07:48.560Z,32.00
2019-04-23T14:12:42.006Z,32.20
2019-04-23T14:15:19.304Z,32.10
2019-04-23T14:30:12.737Z,31.40
2019-04-23T14:32:34.068Z,31.40
2019-04-23T14:35:21.308Z,31.70
2019-04-23T14:37:29.494Z,31.90
2019-04-23T14:40:17.288Z,31.70
2019-04-23T14:45:36.780Z,31.50
2019-04-23T14:47:56.570Z,31.40
2019-04-23T14:52:52.471Z,31.70
2019-04-23T14:58:00.495Z,32.00
2019-04-23T15:00:22.127Z,31.80
2019-04-23T15:05:17.413Z,31.60
2019-04-23T15:07:42.859Z,31.70
2019-04-23T15:10:32.659Z,31.60
2019-04-23T15:12:45.729Z,31.50
2019-04-23T15:15:13.896Z,31.50
2019-04-23T15:17:45.131Z,31.40
2019-04-23T15:22:51.030Z,31.80
2019-04-23T15:27:45.703Z,31.90
2019-04-23T15:29:59.443Z,31.70
2019-04-23T15:32:43.833Z,31.70
2019-04-23T15:35:17.875Z,31.50
2019-04-23T15:40:08.880Z,31.70
2019-04-23T15:45:07.986Z,31.80
2019-04-23T15:47:32.907Z,31.90
2019-04-23T15:50:10.506Z,31.90
2019-04-23T15:52:38.039Z,31.60
2019-04-23T15:57:45.116Z,31.40
2019-04-23T16:01:58.809Z,31.50
2019-04-23T16:04:25.717Z,31.40
2019-04-23T16:06:54.010Z,31.20
2019-04-23T16:09:55.791Z,31.20
2019-04-23T16:12:09.784Z,30.90
2019-04-23T16:14:56.480Z,30.70
2019-04-23T16:17:20.998Z,30.70
2019-04-23T16:20:06.122Z,30.90
2019-04-23T16:22:20.277Z,30.90
2019-04-23T16:24:55.497Z,31.00
2019-04-23T16:30:06.323Z,31.20
2019-04-23T16:32:30.945Z,31.30
2019-04-23T16:34:54.437Z,31.30
2019-04-23T16:37:24.881Z,31.00
2019-04-23T16:39:58.104Z,30.90
2019-04-23T16:44:56.847Z,30.60
2019-04-23T16:47:28.470Z,30.70
2019-04-23T16:49:55.465Z,30.90
2019-04-23T16:52:19.972Z,30.80
2019-04-23T16:54:53.562Z,30.90
2019-04-23T16:59:48.150Z,30.90
2019-04-23T17:02:15.615Z,30.90
2019-04-23T17:04:38.677Z,30.90
2019-04-23T17:09:42.692Z,30.40
2019-04-23T17:14:32.981Z,30.50
2019-04-23T17:16:53.551Z,30.60
2019-04-23T17:19:41.024Z,30.60
2019-04-23T17:22:04.315Z,30.50
2019-04-23T17:29:28.258Z,30.40
2019-04-23T17:32:02.482Z,30.30
2019-04-23T17:34:38.132Z,30.10
2019-04-23T17:37:13.956Z,30.10
2019-04-23T17:39:54.625Z,30.10
2019-04-23T17:45:08.303Z,30.00
2019-04-23T17:47:35.248Z,30.00
2019-04-23T17:52:35.112Z,29.90
2019-04-23T17:55:07.687Z,29.80
2019-04-23T17:57:28.239Z,29.70
2019-04-23T18:00:10.015Z,29.70
2019-04-23T18:02:51.688Z,29.80
2019-04-23T18:05:06.349Z,29.80
2019-04-23T18:14:59.608Z,29.60
2019-04-23T18:17:27.017Z,29.50
2019-04-23T18:20:13.081Z,29.50
2019-04-23T18:23:00.790Z,29.50
2019-04-23T18:25:17.069Z,29.60
2019-04-23T18:27:47.107Z,29.60
2019-04-23T18:30:19.209Z,29.70
2019-04-23T18:35:28.003Z,29.80
2019-04-23T18:38:16.622Z,29.70
2019-04-23T18:40:19.779Z,29.60
2019-04-23T18:43:02.581Z,29.40
2019-04-23T18:45:37.579Z,29.30
2019-04-23T18:47:50.382Z,29.30
2019-04-23T18:50:37.705Z,29.20
2019-04-23T18:55:38.301Z,29.20
2019-04-23T18:57:50.455Z,29.20
2019-04-23T19:00:30.264Z,29.20
2019-04-23T19:03:01.333Z,29.30
2019-04-23T19:05:30.937Z,29.20
2019-04-23T19:08:21.256Z,29.10
2019-04-23T19:10:45.879Z,29.00
2019-04-23T19:13:18.860Z,28.90
2019-04-23T19:15:40.649Z,28.90
2019-04-23T19:18:19.091Z,28.80
2019-04-23T19:21:00.930Z,28.80
2019-04-23T19:23:25.750Z,28.80
2019-04-23T19:25:46.860Z,28.80
2019-04-23T19:28:34.646Z,29.00
2019-04-23T19:30:53.774Z,28.90
2019-04-23T19:33:32.335Z,28.80
2019-04-23T19:36:13.785Z,28.60
2019-04-23T19:38:28.848Z,28.60
2019-04-23T19:43:26.478Z,28.50
2019-04-23T19:45:58.120Z,28.30
2019-04-23T19:48:25.644Z,28.30
2019-04-23T19:55:58.785Z,28.10
2019-04-23T19:58:25.964Z,28.10
2019-04-23T20:01:03.758Z,28.20
2019-04-23T20:03:28.249Z,28.30
2019-04-23T20:05:57.321Z,28.40
2019-04-23T20:08:30.029Z,28.40
2019-04-23T20:11:04.042Z,28.30
2019-04-23T20:13:24.067Z,28.40
2019-04-23T20:15:59.333Z,28.30
2019-04-23T20:18:05.339Z,28.20
2019-04-23T20:20:49.263Z,28.10
2019-04-23T20:23:25.669Z,28.20
2019-04-23T20:26:12.098Z,28.20
2019-04-23T20:28:40.764Z,28.30
2019-04-23T20:36:07.100Z,28.10
2019-04-23T20:41:08.300Z,28.10
2019-04-23T20:43:34.860Z,28.00
2019-04-23T20:45:58.879Z,27.90
2019-04-23T20:48:36.762Z,27.90
2019-04-23T20:50:54.062Z,27.80
2019-04-23T20:53:24.301Z,27.80
2019-04-23T20:58:38.819Z,27.80
2019-04-23T21:06:06.943Z,27.70
2019-04-23T21:09:00.845Z,27.50
2019-04-23T21:10:55.295Z,27.60
2019-04-23T21:13:47.455Z,27.50
2019-04-23T21:15:58.451Z,27.50
2019-04-23T21:20:56.038Z,27.30
2019-04-23T21:25:52.432Z,27.20
2019-04-23T21:31:11.498Z,27.30
2019-04-23T21:33:49.883Z,27.40
2019-04-23T21:41:35.231Z,27.30
2019-04-23T21:44:08.200Z,27.30
2019-04-23T21:46:33.942Z,27.30
2019-04-23T21:58:59.496Z,27.20
2019-04-23T22:01:28.094Z,27.20
2019-04-23T22:04:08.639Z,27.30
2019-04-23T22:06:22.280Z,27.20
2019-04-23T22:08:53.347Z,27.30
2019-04-23T22:11:43.975Z,27.30
2019-04-23T22:13:58.249Z,27.30
2019-04-23T22:21:20.865Z,27.40
2019-04-23T22:23:57.744Z,27.30
2019-04-23T22:26:23.975Z,27.10
2019-04-23T22:28:57.793Z,27.20
2019-04-23T22:31:19.994Z,27.30
2019-04-23T22:34:06.249Z,27.30
2019-04-23T22:36:16.444Z,27.10
2019-04-23T22:38:43.499Z,27.10
2019-04-23T22:41:08.809Z,27.10
2019-04-23T22:43:46.631Z,27.10
2019-04-23T22:46:08.677Z,27.10
2019-04-23T22:48:46.889Z,27.10
2019-04-23T22:51:11.031Z,27.10
2019-04-23T22:53:46.575Z,27.10
2019-04-23T22:58:41.539Z,26.90
2019-04-23T23:01:21.192Z,27.00
2019-04-23T23:03:52.899Z,27.00
2019-04-23T23:06:21.076Z,26.80
2019-04-23T23:08:55.974Z,26.70
2019-04-23T23:11:11.920Z,26.60
2019-04-23T23:13:52.914Z,26.80
2019-04-23T23:16:07.582Z,26.70
2019-04-23T23:18:40.469Z,26.80
2019-04-23T23:23:39.385Z,26.40
2019-04-23T23:26:11.358Z,26.60
2019-04-23T23:28:38.529Z,26.50
2019-04-23T23:31:06.958Z,26.60
2019-04-23T23:36:05.623Z,26.60
2019-04-23T23:41:25.025Z,26.70
2019-04-23T23:43:31.660Z,26.60
2019-04-23T23:46:22.171Z,26.50
2019-04-23T23:48:27.992Z,26.50
2019-04-23T23:51:14.725Z,26.50
2019-04-23T23:53:53.261Z,26.40
2019-04-23T23:56:05.153Z,26.40
2019-04-23T23:58:33.668Z,26.30
